sensor_id;sensor_type;location;lat;lon;timestamp;temperature;humidity
25208;DHT22;13153;52.316;21.166;2023-02-15T00:01:41;4.30;99.90
25208;DHT22;13153;52.316;21.166;2023-02-15T00:04:09;4.30;99.90
25208;DHT22;13153;52.316;21.166;2023-02-15T00:06:38;4.30;99.90
25208;DHT22;13153;52.316;21.166;2023-02-15T00:09:04;4.30;99.90
25208;DHT22;13153;52.316;21.166;2023-02-15T00:11:30;4.30;99.90
25208;DHT22;13153;52.316;21.166;2023-02-15T00:14:25;4.30;99.90
25208;DHT22;13153;52.316;21.166;2023-02-15T00:16:52;4.30;99.90
25208;DHT22;13153;52.316;21.166;2023-02-15T00:19:20;4.30;99.90
25208;DHT22;13153;52.316;21.166;2023-02-15T00:21:47;4.30;99.90
25208;DHT22;13153;52.316;21.166;2023-02-15T00:24:16;4.30;99.90
25208;DHT22;13153;52.316;21.166;2023-02-15T00:26:44;4.30;99.90
25208;DHT22;13153;52.316;21.166;2023-02-15T00:29:12;4.30;99.90
25208;DHT22;13153;52.316;21.166;2023-02-15T00:31:39;4.30;99.90
25208;DHT22;13153;52.316;21.166;2023-02-15T00:34:19;4.20;99.90
25208;DHT22;13153;52.316;21.166;2023-02-15T00:36:46;4.30;99.90
25208;DHT22;13153;52.316;21.166;2023-02-15T00:39:13;4.30;99.90
25208;DHT22;13153;52.316;21.166;2023-02-15T00:41:41;4.30;99.90
25208;DHT22;13153;52.316;21.166;2023-02-15T00:44:08;4.30;99.90
25208;DHT22;13153;52.316;21.166;2023-02-15T00:46:35;4.40;99.90
25208;DHT22;13153;52.316;21.166;2023-02-15T00:49:01;4.40;99.90
25208;DHT22;13153;52.316;21.166;2023-02-15T00:51:28;4.40;99.90
25208;DHT22;13153;52.316;21.166;2023-02-15T00:53:54;4.40;99.90
25208;DHT22;13153;52.316;21.166;2023-02-15T00:56:21;4.40;99.90
25208;DHT22;13153;52.316;21.166;2023-02-15T00:58:47;4.40;99.90
25208;DHT22;13153;52.316;21.166;2023-02-15T01:01:18;4.40;99.90
25208;DHT22;13153;52.316;21.166;2023-02-15T01:03:45;4.40;99.90
25208;DHT22;13153;52.316;21.166;2023-02-15T01:06:15;4.40;99.90
25208;DHT22;13153;52.316;21.166;2023-02-15T01:08:41;4.40;99.90
25208;DHT22;13153;52.316;21.166;2023-02-15T01:11:11;4.40;99.90
25208;DHT22;13153;52.316;21.166;2023-02-15T01:13:40;4.50;99.90
25208;DHT22;13153;52.316;21.166;2023-02-15T01:16:07;4.50;99.90
25208;DHT22;13153;52.316;21.166;2023-02-15T01:18:34;4.50;99.90
25208;DHT22;13153;52.316;21.166;2023-02-15T01:21:12;4.50;99.90
25208;DHT22;13153;52.316;21.166;2023-02-15T01:23:41;4.50;99.90
25208;DHT22;13153;52.316;21.166;2023-02-15T01:26:07;4.50;99.90
25208;DHT22;13153;52.316;21.166;2023-02-15T01:28:34;4.50;99.90
25208;DHT22;13153;52.316;21.166;2023-02-15T01:31:05;4.50;99.90
25208;DHT22;13153;52.316;21.166;2023-02-15T01:33:36;4.50;99.90
25208;DHT22;13153;52.316;21.166;2023-02-15T01:36:03;4.50;99.90
25208;DHT22;13153;52.316;21.166;2023-02-15T01:38:30;4.40;99.90
25208;DHT22;13153;52.316;21.166;2023-02-15T01:40:56;4.40;99.90
25208;DHT22;13153;52.316;21.166;2023-02-15T01:43:42;4.40;99.90
25208;DHT22;13153;52.316;21.166;2023-02-15T01:46:10;4.50;99.90
25208;DHT22;13153;52.316;21.166;2023-02-15T01:48:45;4.50;99.90
25208;DHT22;13153;52.316;21.166;2023-02-15T01:51:15;4.50;99.90
25208;DHT22;13153;52.316;21.166;2023-02-15T01:53:52;4.50;99.90
25208;DHT22;13153;52.316;21.166;2023-02-15T01:56:26;4.50;99.90
25208;DHT22;13153;52.316;21.166;2023-02-15T01:58:57;4.50;99.90
25208;DHT22;13153;52.316;21.166;2023-02-15T02:01:27;4.40;99.90
25208;DHT22;13153;52.316;21.166;2023-02-15T02:04:15;4.40;99.90
25208;DHT22;13153;52.316;21.166;2023-02-15T02:06:49;4.40;99.90
25208;DHT22;13153;52.316;21.166;2023-02-15T02:09:16;4.40;99.90
25208;DHT22;13153;52.316;21.166;2023-02-15T02:11:45;4.40;99.90
25208;DHT22;13153;52.316;21.166;2023-02-15T02:14:12;4.40;99.90
25208;DHT22;13153;52.316;21.166;2023-02-15T02:16:58;4.50;99.90
25208;DHT22;13153;52.316;21.166;2023-02-15T02:39:52;4.50;99.90
25208;DHT22;13153;52.316;21.166;2023-02-15T02:42:43;4.50;99.90
25208;DHT22;13153;52.316;21.166;2023-02-15T02:45:28;4.50;99.90
25208;DHT22;13153;52.316;21.166;2023-02-15T02:48:09;4.50;99.90
25208;DHT22;13153;52.316;21.166;2023-02-15T02:50:39;4.60;99.90
25208;DHT22;13153;52.316;21.166;2023-02-15T02:53:06;4.50;99.90
25208;DHT22;13153;52.316;21.166;2023-02-15T02:55:54;4.50;99.90
25208;DHT22;13153;52.316;21.166;2023-02-15T02:58:39;4.50;99.90
25208;DHT22;13153;52.316;21.166;2023-02-15T03:01:17;4.50;99.90
25208;DHT22;13153;52.316;21.166;2023-02-15T03:03:55;4.50;99.90
25208;DHT22;13153;52.316;21.166;2023-02-15T03:06:48;4.50;99.90
25208;DHT22;13153;52.316;21.166;2023-02-15T03:09:31;4.40;99.90
25208;DHT22;13153;52.316;21.166;2023-02-15T03:12:31;4.50;99.90
25208;DHT22;13153;52.316;21.166;2023-02-15T03:15:04;4.40;99.90
25208;DHT22;13153;52.316;21.166;2023-02-15T03:18:16;4.40;99.90
25208;DHT22;13153;52.316;21.166;2023-02-15T03:20:46;4.50;99.90
25208;DHT22;13153;52.316;21.166;2023-02-15T03:23:20;4.40;99.90
25208;DHT22;13153;52.316;21.166;2023-02-15T03:26:00;4.50;99.90
25208;DHT22;13153;52.316;21.166;2023-02-15T03:28:38;4.50;99.90
25208;DHT22;13153;52.316;21.166;2023-02-15T03:31:10;4.50;99.90
25208;DHT22;13153;52.316;21.166;2023-02-15T03:33:52;4.50;99.90
25208;DHT22;13153;52.316;21.166;2023-02-15T03:41:56;4.50;99.90
25208;DHT22;13153;52.316;21.166;2023-02-15T03:44:30;4.50;99.90
25208;DHT22;13153;52.316;21.166;2023-02-15T03:47:02;4.50;99.90
25208;DHT22;13153;52.316;21.166;2023-02-15T03:52:29;4.50;99.90
25208;DHT22;13153;52.316;21.166;2023-02-15T03:54:58;4.50;99.90
25208;DHT22;13153;52.316;21.166;2023-02-15T03:57:26;4.50;99.90
25208;DHT22;13153;52.316;21.166;2023-02-15T04:00:19;4.50;99.90
25208;DHT22;13153;52.316;21.166;2023-02-15T04:05:43;4.60;99.90
25208;DHT22;13153;52.316;21.166;2023-02-15T04:08:10;4.60;99.90
25208;DHT22;13153;52.316;21.166;2023-02-15T04:10:37;4.60;99.90
25208;DHT22;13153;52.316;21.166;2023-02-15T04:13:22;4.50;99.90
25208;DHT22;13153;52.316;21.166;2023-02-15T04:15:50;4.50;99.90
25208;DHT22;13153;52.316;21.166;2023-02-15T04:18:32;4.50;99.90
25208;DHT22;13153;52.316;21.166;2023-02-15T04:21:22;4.60;99.90
25208;DHT22;13153;52.316;21.166;2023-02-15T04:24:08;4.50;99.90
25208;DHT22;13153;52.316;21.166;2023-02-15T04:26:53;4.50;99.90
25208;DHT22;13153;52.316;21.166;2023-02-15T04:29:20;4.50;99.90
25208;DHT22;13153;52.316;21.166;2023-02-15T04:31:48;4.50;99.90
25208;DHT22;13153;52.316;21.166;2023-02-15T04:34:14;4.50;99.90
25208;DHT22;13153;52.316;21.166;2023-02-15T04:36:41;4.60;99.90
25208;DHT22;13153;52.316;21.166;2023-02-15T04:39:07;4.50;99.90
25208;DHT22;13153;52.316;21.166;2023-02-15T04:41:33;4.60;99.90
25208;DHT22;13153;52.316;21.166;2023-02-15T04:43:59;4.60;99.90
25208;DHT22;13153;52.316;21.166;2023-02-15T04:46:26;4.60;99.90
25208;DHT22;13153;52.316;21.166;2023-02-15T04:48:53;4.70;99.90
25208;DHT22;13153;52.316;21.166;2023-02-15T04:51:19;4.70;99.90
25208;DHT22;13153;52.316;21.166;2023-02-15T04:53:45;4.70;99.90
25208;DHT22;13153;52.316;21.166;2023-02-15T04:56:11;4.70;99.90
25208;DHT22;13153;52.316;21.166;2023-02-15T04:58:37;4.70;99.90
25208;DHT22;13153;52.316;21.166;2023-02-15T05:01:07;4.60;99.90
25208;DHT22;13153;52.316;21.166;2023-02-15T05:03:34;4.60;99.90
25208;DHT22;13153;52.316;21.166;2023-02-15T05:06:00;4.60;99.90
25208;DHT22;13153;52.316;21.166;2023-02-15T05:08:26;4.70;99.90
25208;DHT22;13153;52.316;21.166;2023-02-15T05:10:52;4.70;99.90
25208;DHT22;13153;52.316;21.166;2023-02-15T05:13:18;4.70;99.90
25208;DHT22;13153;52.316;21.166;2023-02-15T05:15:51;4.70;99.90
25208;DHT22;13153;52.316;21.166;2023-02-15T05:18:18;4.70;99.90
25208;DHT22;13153;52.316;21.166;2023-02-15T05:20:46;4.70;99.90
25208;DHT22;13153;52.316;21.166;2023-02-15T05:23:12;4.70;99.90
25208;DHT22;13153;52.316;21.166;2023-02-15T05:25:38;4.70;99.90
25208;DHT22;13153;52.316;21.166;2023-02-15T05:28:24;4.70;99.90
25208;DHT22;13153;52.316;21.166;2023-02-15T05:33:31;4.70;99.90
25208;DHT22;13153;52.316;21.166;2023-02-15T05:35:58;4.70;99.90
25208;DHT22;13153;52.316;21.166;2023-02-15T05:38:23;4.60;99.90
25208;DHT22;13153;52.316;21.166;2023-02-15T05:40:53;4.60;99.90
25208;DHT22;13153;52.316;21.166;2023-02-15T05:43:19;4.60;99.90
25208;DHT22;13153;52.316;21.166;2023-02-15T05:45:47;4.60;99.90
25208;DHT22;13153;52.316;21.166;2023-02-15T05:48:14;4.60;99.90
25208;DHT22;13153;52.316;21.166;2023-02-15T05:50:40;4.60;99.90
25208;DHT22;13153;52.316;21.166;2023-02-15T05:53:06;4.60;99.90
25208;DHT22;13153;52.316;21.166;2023-02-15T05:55:32;4.60;99.90
25208;DHT22;13153;52.316;21.166;2023-02-15T05:57:58;4.60;99.90
25208;DHT22;13153;52.316;21.166;2023-02-15T06:00:24;4.60;99.90
25208;DHT22;13153;52.316;21.166;2023-02-15T06:02:51;4.60;99.90
25208;DHT22;13153;52.316;21.166;2023-02-15T06:05:16;4.60;99.90
25208;DHT22;13153;52.316;21.166;2023-02-15T06:07:43;4.60;99.90
25208;DHT22;13153;52.316;21.166;2023-02-15T06:10:10;4.60;99.90
25208;DHT22;13153;52.316;21.166;2023-02-15T06:12:36;4.60;99.90
25208;DHT22;13153;52.316;21.166;2023-02-15T06:15:02;4.60;99.90
25208;DHT22;13153;52.316;21.166;2023-02-15T06:17:29;4.60;99.90
25208;DHT22;13153;52.316;21.166;2023-02-15T06:19:55;4.60;99.90
25208;DHT22;13153;52.316;21.166;2023-02-15T06:22:21;4.60;99.90
25208;DHT22;13153;52.316;21.166;2023-02-15T06:24:47;4.60;99.90
25208;DHT22;13153;52.316;21.166;2023-02-15T06:27:13;4.60;99.90
25208;DHT22;13153;52.316;21.166;2023-02-15T06:29:39;4.60;99.90
25208;DHT22;13153;52.316;21.166;2023-02-15T06:32:05;4.60;99.90
25208;DHT22;13153;52.316;21.166;2023-02-15T06:34:31;4.60;99.90
25208;DHT22;13153;52.316;21.166;2023-02-15T06:36:57;4.70;99.90
25208;DHT22;13153;52.316;21.166;2023-02-15T06:39:23;4.70;99.90
25208;DHT22;13153;52.316;21.166;2023-02-15T06:41:49;4.70;99.90
25208;DHT22;13153;52.316;21.166;2023-02-15T06:44:15;4.70;99.90
25208;DHT22;13153;52.316;21.166;2023-02-15T06:46:40;4.70;99.90
25208;DHT22;13153;52.316;21.166;2023-02-15T06:49:06;4.80;99.90
25208;DHT22;13153;52.316;21.166;2023-02-15T06:51:32;4.80;99.90
25208;DHT22;13153;52.316;21.166;2023-02-15T06:53:59;4.80;99.90
25208;DHT22;13153;52.316;21.166;2023-02-15T06:56:25;4.80;99.90
25208;DHT22;13153;52.316;21.166;2023-02-15T06:58:51;4.80;99.90
25208;DHT22;13153;52.316;21.166;2023-02-15T07:01:18;4.80;99.90
25208;DHT22;13153;52.316;21.166;2023-02-15T07:03:44;4.80;99.90
25208;DHT22;13153;52.316;21.166;2023-02-15T07:06:10;4.80;99.90
25208;DHT22;13153;52.316;21.166;2023-02-15T07:08:37;4.90;99.90
25208;DHT22;13153;52.316;21.166;2023-02-15T07:11:05;4.80;99.90
25208;DHT22;13153;52.316;21.166;2023-02-15T07:13:50;4.90;99.90
25208;DHT22;13153;52.316;21.166;2023-02-15T07:16:18;4.80;99.90
25208;DHT22;13153;52.316;21.166;2023-02-15T07:18:44;4.90;99.90
25208;DHT22;13153;52.316;21.166;2023-02-15T07:21:10;4.80;99.90
25208;DHT22;13153;52.316;21.166;2023-02-15T07:23:37;4.90;99.90
25208;DHT22;13153;52.316;21.166;2023-02-15T07:26:05;4.90;99.90
25208;DHT22;13153;52.316;21.166;2023-02-15T07:28:32;4.90;99.90
25208;DHT22;13153;52.316;21.166;2023-02-15T07:31:02;4.90;99.90
25208;DHT22;13153;52.316;21.166;2023-02-15T07:33:31;4.90;99.90
25208;DHT22;13153;52.316;21.166;2023-02-15T07:35:59;4.90;99.90
25208;DHT22;13153;52.316;21.166;2023-02-15T07:38:31;4.90;99.90
25208;DHT22;13153;52.316;21.166;2023-02-15T07:41:03;4.90;99.90
25208;DHT22;13153;52.316;21.166;2023-02-15T07:43:37;4.90;99.90
25208;DHT22;13153;52.316;21.166;2023-02-15T07:46:08;4.90;99.90
25208;DHT22;13153;52.316;21.166;2023-02-15T07:48:36;5.00;99.90
25208;DHT22;13153;52.316;21.166;2023-02-15T07:51:04;5.00;99.90
25208;DHT22;13153;52.316;21.166;2023-02-15T07:53:32;5.00;99.90
25208;DHT22;13153;52.316;21.166;2023-02-15T07:56:03;5.00;99.90
25208;DHT22;13153;52.316;21.166;2023-02-15T07:58:32;4.90;99.90
25208;DHT22;13153;52.316;21.166;2023-02-15T08:01:35;5.00;99.90
25208;DHT22;13153;52.316;21.166;2023-02-15T08:04:03;4.90;99.90
25208;DHT22;13153;52.316;21.166;2023-02-15T08:06:34;4.90;99.90
25208;DHT22;13153;52.316;21.166;2023-02-15T08:09:07;4.90;99.90
25208;DHT22;13153;52.316;21.166;2023-02-15T08:11:37;4.90;99.90
25208;DHT22;13153;52.316;21.166;2023-02-15T08:14:08;4.90;99.90
25208;DHT22;13153;52.316;21.166;2023-02-15T08:16:54;4.90;99.90
25208;DHT22;13153;52.316;21.166;2023-02-15T08:19:24;4.90;99.90
25208;DHT22;13153;52.316;21.166;2023-02-15T08:21:59;4.80;99.90
25208;DHT22;13153;52.316;21.166;2023-02-15T08:24:34;4.80;99.90
25208;DHT22;13153;52.316;21.166;2023-02-15T08:27:06;4.90;99.90
25208;DHT22;13153;52.316;21.166;2023-02-15T08:29:35;4.80;99.90
25208;DHT22;13153;52.316;21.166;2023-02-15T08:32:05;4.90;99.90
25208;DHT22;13153;52.316;21.166;2023-02-15T08:34:38;4.80;99.90
25208;DHT22;13153;52.316;21.166;2023-02-15T08:37:06;4.90;99.90
25208;DHT22;13153;52.316;21.166;2023-02-15T08:39:32;4.90;99.90
25208;DHT22;13153;52.316;21.166;2023-02-15T08:41:58;4.90;99.90
25208;DHT22;13153;52.316;21.166;2023-02-15T08:44:24;4.90;99.90
25208;DHT22;13153;52.316;21.166;2023-02-15T08:46:50;4.90;99.90
25208;DHT22;13153;52.316;21.166;2023-02-15T08:49:19;4.90;99.90
25208;DHT22;13153;52.316;21.166;2023-02-15T08:51:47;4.80;99.90
25208;DHT22;13153;52.316;21.166;2023-02-15T08:54:16;5.00;99.90
25208;DHT22;13153;52.316;21.166;2023-02-15T08:56:44;4.90;99.90
25208;DHT22;13153;52.316;21.166;2023-02-15T08:59:13;5.00;99.90
25208;DHT22;13153;52.316;21.166;2023-02-15T09:01:45;4.90;99.90
25208;DHT22;13153;52.316;21.166;2023-02-15T09:04:12;4.90;99.90
25208;DHT22;13153;52.316;21.166;2023-02-15T09:06:39;5.00;99.90
25208;DHT22;13153;52.316;21.166;2023-02-15T09:09:06;5.00;99.90
25208;DHT22;13153;52.316;21.166;2023-02-15T09:11:35;5.00;99.90
25208;DHT22;13153;52.316;21.166;2023-02-15T09:14:06;5.00;99.90
25208;DHT22;13153;52.316;21.166;2023-02-15T09:16:36;5.00;99.90
25208;DHT22;13153;52.316;21.166;2023-02-15T09:19:04;5.00;99.90
25208;DHT22;13153;52.316;21.166;2023-02-15T09:21:32;5.00;99.90
25208;DHT22;13153;52.316;21.166;2023-02-15T09:24:03;5.10;99.90
25208;DHT22;13153;52.316;21.166;2023-02-15T09:26:32;5.10;99.90
25208;DHT22;13153;52.316;21.166;2023-02-15T09:29:00;5.00;99.90
25208;DHT22;13153;52.316;21.166;2023-02-15T09:31:30;5.10;99.90
25208;DHT22;13153;52.316;21.166;2023-02-15T09:33:59;5.10;99.90
25208;DHT22;13153;52.316;21.166;2023-02-15T09:36:30;5.10;99.90
25208;DHT22;13153;52.316;21.166;2023-02-15T09:39:14;5.00;99.90
25208;DHT22;13153;52.316;21.166;2023-02-15T09:48:07;5.10;99.90
25208;DHT22;13153;52.316;21.166;2023-02-15T09:51:03;5.10;99.90
25208;DHT22;13153;52.316;21.166;2023-02-15T09:53:43;5.10;99.90
25208;DHT22;13153;52.316;21.166;2023-02-15T09:56:45;5.00;99.90
25208;DHT22;13153;52.316;21.166;2023-02-15T10:05:11;5.10;99.90
25208;DHT22;13153;52.316;21.166;2023-02-15T10:14:20;5.10;99.90
25208;DHT22;13153;52.316;21.166;2023-02-15T10:28:44;4.90;99.90
25208;DHT22;13153;52.316;21.166;2023-02-15T10:42:30;4.60;99.90
25208;DHT22;13153;52.316;21.166;2023-02-15T10:45:20;4.60;99.90
25208;DHT22;13153;52.316;21.166;2023-02-15T10:48:29;4.70;99.90
25208;DHT22;13153;52.316;21.166;2023-02-15T10:51:06;4.70;99.90
25208;DHT22;13153;52.316;21.166;2023-02-15T10:54:05;4.70;99.90
25208;DHT22;13153;52.316;21.166;2023-02-15T10:57:02;4.80;99.90
25208;DHT22;13153;52.316;21.166;2023-02-15T11:05:52;4.90;99.90
25208;DHT22;13153;52.316;21.166;2023-02-15T11:08:24;4.80;99.90
25208;DHT22;13153;52.316;21.166;2023-02-15T11:10:58;4.80;99.90
25208;DHT22;13153;52.316;21.166;2023-02-15T11:13:32;4.70;99.90
25208;DHT22;13153;52.316;21.166;2023-02-15T11:16:22;4.70;99.90
25208;DHT22;13153;52.316;21.166;2023-02-15T11:18:57;4.60;99.90
25208;DHT22;13153;52.316;21.166;2023-02-15T11:21:33;4.70;99.90
25208;DHT22;13153;52.316;21.166;2023-02-15T11:24:12;4.60;99.90
25208;DHT22;13153;52.316;21.166;2023-02-15T11:29:46;4.60;99.90
25208;DHT22;13153;52.316;21.166;2023-02-15T11:32:16;4.50;99.90
25208;DHT22;13153;52.316;21.166;2023-02-15T11:35:02;4.50;99.90
25208;DHT22;13153;52.316;21.166;2023-02-15T11:37:44;4.50;99.90
25208;DHT22;13153;52.316;21.166;2023-02-15T11:40:36;4.50;99.90
25208;DHT22;13153;52.316;21.166;2023-02-15T11:43:43;4.50;99.90
25208;DHT22;13153;52.316;21.166;2023-02-15T11:46:26;4.60;99.90
25208;DHT22;13153;52.316;21.166;2023-02-15T11:48:52;4.60;99.90
25208;DHT22;13153;52.316;21.166;2023-02-15T11:51:20;4.60;99.90
25208;DHT22;13153;52.316;21.166;2023-02-15T11:53:48;4.60;99.90
25208;DHT22;13153;52.316;21.166;2023-02-15T11:56:22;4.60;99.90
25208;DHT22;13153;52.316;21.166;2023-02-15T12:01:52;4.70;99.90
25208;DHT22;13153;52.316;21.166;2023-02-15T12:07:15;4.60;99.90
25208;DHT22;13153;52.316;21.166;2023-02-15T12:12:32;4.40;99.90
25208;DHT22;13153;52.316;21.166;2023-02-15T12:15:06;4.40;99.90
25208;DHT22;13153;52.316;21.166;2023-02-15T12:17:54;4.50;99.90
25208;DHT22;13153;52.316;21.166;2023-02-15T12:20:21;4.50;99.90
25208;DHT22;13153;52.316;21.166;2023-02-15T12:23:04;4.60;99.90
25208;DHT22;13153;52.316;21.166;2023-02-15T12:25:42;4.50;99.90
25208;DHT22;13153;52.316;21.166;2023-02-15T12:28:52;4.40;99.90
25208;DHT22;13153;52.316;21.166;2023-02-15T12:31:31;4.40;99.90
25208;DHT22;13153;52.316;21.166;2023-02-15T12:34:09;4.40;99.90
25208;DHT22;13153;52.316;21.166;2023-02-15T12:36:44;4.40;99.90
25208;DHT22;13153;52.316;21.166;2023-02-15T12:39:19;4.40;99.90
25208;DHT22;13153;52.316;21.166;2023-02-15T12:44:22;4.40;99.90
25208;DHT22;13153;52.316;21.166;2023-02-15T12:47:18;4.30;99.90
25208;DHT22;13153;52.316;21.166;2023-02-15T12:52:46;4.20;99.90
25208;DHT22;13153;52.316;21.166;2023-02-15T12:55:23;4.30;99.90
25208;DHT22;13153;52.316;21.166;2023-02-15T12:58:19;4.30;99.90
25208;DHT22;13153;52.316;21.166;2023-02-15T13:01:19;4.30;99.90
25208;DHT22;13153;52.316;21.166;2023-02-15T13:04:26;4.40;99.90
25208;DHT22;13153;52.316;21.166;2023-02-15T13:06:58;4.50;99.90
25208;DHT22;13153;52.316;21.166;2023-02-15T13:11:57;4.40;99.90
25208;DHT22;13153;52.316;21.166;2023-02-15T13:14:36;4.50;99.90
25208;DHT22;13153;52.316;21.166;2023-02-15T13:17:04;4.50;99.90
25208;DHT22;13153;52.316;21.166;2023-02-15T13:19:41;4.50;99.90
25208;DHT22;13153;52.316;21.166;2023-02-15T13:22:25;4.50;99.90
25208;DHT22;13153;52.316;21.166;2023-02-15T13:25:04;4.50;99.90
25208;DHT22;13153;52.316;21.166;2023-02-15T13:27:39;4.40;99.90
25208;DHT22;13153;52.316;21.166;2023-02-15T13:33:01;4.40;99.90
25208;DHT22;13153;52.316;21.166;2023-02-15T13:35:38;4.40;99.90
25208;DHT22;13153;52.316;21.166;2023-02-15T13:38:20;4.40;99.90
25208;DHT22;13153;52.316;21.166;2023-02-15T13:41:20;4.40;99.90
25208;DHT22;13153;52.316;21.166;2023-02-15T13:47:30;4.40;99.90
25208;DHT22;13153;52.316;21.166;2023-02-15T13:50:32;4.50;99.90
25208;DHT22;13153;52.316;21.166;2023-02-15T13:55:51;4.40;99.90
25208;DHT22;13153;52.316;21.166;2023-02-15T13:58:42;4.50;99.90
25208;DHT22;13153;52.316;21.166;2023-02-15T14:07:57;4.40;99.90
25208;DHT22;13153;52.316;21.166;2023-02-15T14:10:36;4.50;99.90
25208;DHT22;13153;52.316;21.166;2023-02-15T14:16:15;4.60;99.90
25208;DHT22;13153;52.316;21.166;2023-02-15T14:22:03;4.60;99.90
25208;DHT22;13153;52.316;21.166;2023-02-15T14:31:05;4.50;99.90
25208;DHT22;13153;52.316;21.166;2023-02-15T14:33:50;4.50;99.90
25208;DHT22;13153;52.316;21.166;2023-02-15T14:36:20;4.40;99.90
25208;DHT22;13153;52.316;21.166;2023-02-15T14:39:03;4.40;99.90
25208;DHT22;13153;52.316;21.166;2023-02-15T14:41:54;4.40;99.90
25208;DHT22;13153;52.316;21.166;2023-02-15T14:44:38;4.40;99.90
25208;DHT22;13153;52.316;21.166;2023-02-15T14:47:21;4.40;99.90
25208;DHT22;13153;52.316;21.166;2023-02-15T14:49:59;4.40;99.90
25208;DHT22;13153;52.316;21.166;2023-02-15T14:58:56;4.40;99.90
25208;DHT22;13153;52.316;21.166;2023-02-15T15:01:33;4.40;99.90
25208;DHT22;13153;52.316;21.166;2023-02-15T15:07:24;4.30;99.90
25208;DHT22;13153;52.316;21.166;2023-02-15T15:10:00;4.30;99.90
25208;DHT22;13153;52.316;21.166;2023-02-15T15:15:53;4.20;99.90
25208;DHT22;13153;52.316;21.166;2023-02-15T15:27:42;4.10;99.90
25208;DHT22;13153;52.316;21.166;2023-02-15T15:50:17;4.10;99.90
25208;DHT22;13153;52.316;21.166;2023-02-15T15:52:51;4.10;99.90
25208;DHT22;13153;52.316;21.166;2023-02-15T15:55:25;4.10;99.90
25208;DHT22;13153;52.316;21.166;2023-02-15T15:58:05;4.10;99.90
25208;DHT22;13153;52.316;21.166;2023-02-15T16:03:23;4.10;99.90
25208;DHT22;13153;52.316;21.166;2023-02-15T16:05:51;4.10;99.90
25208;DHT22;13153;52.316;21.166;2023-02-15T16:08:37;4.10;99.90
25208;DHT22;13153;52.316;21.166;2023-02-15T16:11:21;4.00;99.90
25208;DHT22;13153;52.316;21.166;2023-02-15T16:13:50;4.00;99.90
25208;DHT22;13153;52.316;21.166;2023-02-15T16:16:22;4.10;99.90
25208;DHT22;13153;52.316;21.166;2023-02-15T16:18:51;4.10;99.90
25208;DHT22;13153;52.316;21.166;2023-02-15T16:21:23;4.10;99.90
25208;DHT22;13153;52.316;21.166;2023-02-15T16:27:06;4.10;99.90
25208;DHT22;13153;52.316;21.166;2023-02-15T16:29:37;4.10;99.90
25208;DHT22;13153;52.316;21.166;2023-02-15T16:32:06;4.10;99.90
25208;DHT22;13153;52.316;21.166;2023-02-15T16:35:00;4.00;99.90
25208;DHT22;13153;52.316;21.166;2023-02-15T16:37:34;4.10;99.90
25208;DHT22;13153;52.316;21.166;2023-02-15T16:40:00;4.00;99.90
25208;DHT22;13153;52.316;21.166;2023-02-15T16:42:26;4.00;99.90
25208;DHT22;13153;52.316;21.166;2023-02-15T16:45:07;4.10;99.90
25208;DHT22;13153;52.316;21.166;2023-02-15T16:47:43;4.00;99.90
25208;DHT22;13153;52.316;21.166;2023-02-15T16:50:30;4.00;99.90
25208;DHT22;13153;52.316;21.166;2023-02-15T16:52:59;4.00;99.90
25208;DHT22;13153;52.316;21.166;2023-02-15T16:55:30;4.10;99.90
25208;DHT22;13153;52.316;21.166;2023-02-15T16:58:04;4.10;99.90
25208;DHT22;13153;52.316;21.166;2023-02-15T17:00:35;4.10;99.90
25208;DHT22;13153;52.316;21.166;2023-02-15T17:03:24;4.10;99.90
25208;DHT22;13153;52.316;21.166;2023-02-15T17:05:52;4.10;99.90
25208;DHT22;13153;52.316;21.166;2023-02-15T17:08:33;4.10;99.90
25208;DHT22;13153;52.316;21.166;2023-02-15T17:16:49;4.00;99.90
25208;DHT22;13153;52.316;21.166;2023-02-15T17:19:26;4.00;99.90
25208;DHT22;13153;52.316;21.166;2023-02-15T17:22:22;4.00;99.90
25208;DHT22;13153;52.316;21.166;2023-02-15T17:24:59;4.00;99.90
25208;DHT22;13153;52.316;21.166;2023-02-15T17:27:30;4.00;99.90
25208;DHT22;13153;52.316;21.166;2023-02-15T17:30:11;4.00;99.90
25208;DHT22;13153;52.316;21.166;2023-02-15T17:32:56;4.00;99.90
25208;DHT22;13153;52.316;21.166;2023-02-15T17:35:26;4.00;99.90
25208;DHT22;13153;52.316;21.166;2023-02-15T17:38:06;4.00;99.90
25208;DHT22;13153;52.316;21.166;2023-02-15T17:40:42;4.00;99.90
25208;DHT22;13153;52.316;21.166;2023-02-15T17:43:08;4.00;99.90
25208;DHT22;13153;52.316;21.166;2023-02-15T17:45:44;4.00;99.90
25208;DHT22;13153;52.316;21.166;2023-02-15T17:48:33;4.00;99.90
25208;DHT22;13153;52.316;21.166;2023-02-15T17:51:02;4.00;99.90
25208;DHT22;13153;52.316;21.166;2023-02-15T17:53:30;3.90;99.90
25208;DHT22;13153;52.316;21.166;2023-02-15T17:55:57;3.80;99.90
25208;DHT22;13153;52.316;21.166;2023-02-15T17:58:23;3.80;99.90
25208;DHT22;13153;52.316;21.166;2023-02-15T18:00:51;3.70;99.90
25208;DHT22;13153;52.316;21.166;2023-02-15T18:06:30;3.80;99.90
25208;DHT22;13153;52.316;21.166;2023-02-15T18:09:17;3.70;99.90
25208;DHT22;13153;52.316;21.166;2023-02-15T18:14:47;3.60;99.90
25208;DHT22;13153;52.316;21.166;2023-02-15T18:17:14;3.60;99.90
25208;DHT22;13153;52.316;21.166;2023-02-15T18:19:45;3.70;99.90
25208;DHT22;13153;52.316;21.166;2023-02-15T18:22:15;3.70;99.90
25208;DHT22;13153;52.316;21.166;2023-02-15T18:24:43;3.70;99.90
25208;DHT22;13153;52.316;21.166;2023-02-15T18:27:14;3.70;99.90
25208;DHT22;13153;52.316;21.166;2023-02-15T18:29:41;3.70;99.90
25208;DHT22;13153;52.316;21.166;2023-02-15T18:32:18;3.70;99.90
25208;DHT22;13153;52.316;21.166;2023-02-15T18:34:48;3.70;99.90
25208;DHT22;13153;52.316;21.166;2023-02-15T18:37:24;3.70;99.90
25208;DHT22;13153;52.316;21.166;2023-02-15T18:39:54;3.80;99.90
25208;DHT22;13153;52.316;21.166;2023-02-15T18:42:24;3.80;99.90
25208;DHT22;13153;52.316;21.166;2023-02-15T18:44:58;3.80;99.90
25208;DHT22;13153;52.316;21.166;2023-02-15T18:47:27;3.80;99.90
25208;DHT22;13153;52.316;21.166;2023-02-15T18:49:53;3.70;99.90
25208;DHT22;13153;52.316;21.166;2023-02-15T18:52:21;3.70;99.90
25208;DHT22;13153;52.316;21.166;2023-02-15T18:54:59;3.60;99.90
25208;DHT22;13153;52.316;21.166;2023-02-15T18:57:28;3.50;99.90
25208;DHT22;13153;52.316;21.166;2023-02-15T18:59:55;3.50;99.90
25208;DHT22;13153;52.316;21.166;2023-02-15T19:02:21;3.60;99.90
25208;DHT22;13153;52.316;21.166;2023-02-15T19:04:46;3.60;99.90
25208;DHT22;13153;52.316;21.166;2023-02-15T19:07:24;3.60;99.90
25208;DHT22;13153;52.316;21.166;2023-02-15T19:09:54;3.60;99.90
25208;DHT22;13153;52.316;21.166;2023-02-15T19:12:23;3.60;99.90
25208;DHT22;13153;52.316;21.166;2023-02-15T19:14:49;3.70;99.90
25208;DHT22;13153;52.316;21.166;2023-02-15T19:17:20;3.70;99.90
25208;DHT22;13153;52.316;21.166;2023-02-15T19:19:46;3.60;99.90